sensor_id;sensor_type;location;lat;lon;timestamp;temperature;humidity
2112;DHT22;1062;52.538;13.400;2022-10-16T00:00:56;15.40;99.90
2112;DHT22;1062;52.538;13.400;2022-10-16T00:03:22;15.40;99.90
2112;DHT22;1062;52.538;13.400;2022-10-16T00:05:47;15.40;99.90
2112;DHT22;1062;52.538;13.400;2022-10-16T00:08:13;15.40;99.90
2112;DHT22;1062;52.538;13.400;2022-10-16T00:10:39;15.40;99.90
2112;DHT22;1062;52.538;13.400;2022-10-16T00:13:05;15.40;99.90
2112;DHT22;1062;52.538;13.400;2022-10-16T00:15:34;15.50;99.90
2112;DHT22;1062;52.538;13.400;2022-10-16T00:18:02;15.50;99.90
2112;DHT22;1062;52.538;13.400;2022-10-16T00:20:27;15.50;99.90
2112;DHT22;1062;52.538;13.400;2022-10-16T00:22:53;15.60;99.90
2112;DHT22;1062;52.538;13.400;2022-10-16T00:25:18;15.50;99.90
2112;DHT22;1062;52.538;13.400;2022-10-16T00:27:44;15.60;99.90
2112;DHT22;1062;52.538;13.400;2022-10-16T00:30:10;15.60;99.90
2112;DHT22;1062;52.538;13.400;2022-10-16T00:32:35;15.60;99.90
2112;DHT22;1062;52.538;13.400;2022-10-16T00:35:01;15.60;99.90
2112;DHT22;1062;52.538;13.400;2022-10-16T00:37:28;15.60;99.90
2112;DHT22;1062;52.538;13.400;2022-10-16T00:39:53;15.70;99.90
2112;DHT22;1062;52.538;13.400;2022-10-16T00:42:19;15.70;99.90
2112;DHT22;1062;52.538;13.400;2022-10-16T00:47:23;15.60;99.90
2112;DHT22;1062;52.538;13.400;2022-10-16T00:49:53;15.60;99.90
2112;DHT22;1062;52.538;13.400;2022-10-16T00:52:20;15.60;99.90
2112;DHT22;1062;52.538;13.400;2022-10-16T00:54:46;15.60;99.90
2112;DHT22;1062;52.538;13.400;2022-10-16T00:57:13;15.60;99.90
2112;DHT22;1062;52.538;13.400;2022-10-16T00:59:40;15.60;99.90
2112;DHT22;1062;52.538;13.400;2022-10-16T01:02:11;15.60;99.90
2112;DHT22;1062;52.538;13.400;2022-10-16T01:04:40;15.60;99.90
2112;DHT22;1062;52.538;13.400;2022-10-16T01:12:54;15.60;99.90
2112;DHT22;1062;52.538;13.400;2022-10-16T01:20:57;15.60;99.90
2112;DHT22;1062;52.538;13.400;2022-10-16T01:31:47;15.50;99.90
2112;DHT22;1062;52.538;13.400;2022-10-16T01:34:18;15.50;99.90
2112;DHT22;1062;52.538;13.400;2022-10-16T01:36:51;15.50;99.90
2112;DHT22;1062;52.538;13.400;2022-10-16T01:39:21;15.50;99.90
2112;DHT22;1062;52.538;13.400;2022-10-16T01:42:12;15.50;99.90
2112;DHT22;1062;52.538;13.400;2022-10-16T01:44:39;15.50;99.90
2112;DHT22;1062;52.538;13.400;2022-10-16T01:47:08;15.50;99.90
2112;DHT22;1062;52.538;13.400;2022-10-16T01:49:36;15.50;99.90
2112;DHT22;1062;52.538;13.400;2022-10-16T01:52:06;15.50;99.90
2112;DHT22;1062;52.538;13.400;2022-10-16T01:54:35;15.40;99.90
2112;DHT22;1062;52.538;13.400;2022-10-16T01:57:04;15.50;99.90
2112;DHT22;1062;52.538;13.400;2022-10-16T01:59:33;15.50;99.90
2112;DHT22;1062;52.538;13.400;2022-10-16T02:02:05;15.50;99.90
2112;DHT22;1062;52.538;13.400;2022-10-16T02:04:53;15.50;99.90
2112;DHT22;1062;52.538;13.400;2022-10-16T02:07:20;15.40;99.90
2112;DHT22;1062;52.538;13.400;2022-10-16T02:09:45;15.50;99.90
2112;DHT22;1062;52.538;13.400;2022-10-16T02:12:26;15.40;99.90
2112;DHT22;1062;52.538;13.400;2022-10-16T02:14:52;15.50;99.90
2112;DHT22;1062;52.538;13.400;2022-10-16T02:17:20;15.50;99.90
2112;DHT22;1062;52.538;13.400;2022-10-16T02:19:47;15.50;99.90
2112;DHT22;1062;52.538;13.400;2022-10-16T02:22:28;15.50;99.90
2112;DHT22;1062;52.538;13.400;2022-10-16T02:25:23;15.50;99.90
2112;DHT22;1062;52.538;13.400;2022-10-16T02:27:57;15.50;99.90
2112;DHT22;1062;52.538;13.400;2022-10-16T02:30:35;15.50;99.90
2112;DHT22;1062;52.538;13.400;2022-10-16T02:33:06;15.50;99.90
2112;DHT22;1062;52.538;13.400;2022-10-16T02:35:32;15.50;99.90
2112;DHT22;1062;52.538;13.400;2022-10-16T02:37:59;15.50;99.90
2112;DHT22;1062;52.538;13.400;2022-10-16T02:40:25;15.50;99.90
2112;DHT22;1062;52.538;13.400;2022-10-16T02:42:52;15.50;99.90
2112;DHT22;1062;52.538;13.400;2022-10-16T02:45:18;15.50;99.90
2112;DHT22;1062;52.538;13.400;2022-10-16T02:47:44;15.50;99.90
2112;DHT22;1062;52.538;13.400;2022-10-16T02:50:10;15.50;99.90
2112;DHT22;1062;52.538;13.400;2022-10-16T02:52:35;15.50;99.90
2112;DHT22;1062;52.538;13.400;2022-10-16T02:55:01;15.50;99.90
2112;DHT22;1062;52.538;13.400;2022-10-16T02:57:27;15.50;99.90
2112;DHT22;1062;52.538;13.400;2022-10-16T02:59:52;15.50;99.90
2112;DHT22;1062;52.538;13.400;2022-10-16T03:02:18;15.50;99.90
2112;DHT22;1062;52.538;13.400;2022-10-16T03:04:43;15.40;99.90
2112;DHT22;1062;52.538;13.400;2022-10-16T03:07:09;15.40;99.90
2112;DHT22;1062;52.538;13.400;2022-10-16T03:09:34;15.40;99.90
2112;DHT22;1062;52.538;13.400;2022-10-16T03:12:00;15.40;99.90
2112;DHT22;1062;52.538;13.400;2022-10-16T03:14:26;15.30;99.90
2112;DHT22;1062;52.538;13.400;2022-10-16T03:16:51;15.30;99.90
2112;DHT22;1062;52.538;13.400;2022-10-16T03:19:17;15.30;99.90
2112;DHT22;1062;52.538;13.400;2022-10-16T03:21:43;15.20;99.90
2112;DHT22;1062;52.538;13.400;2022-10-16T03:24:09;15.20;99.90
2112;DHT22;1062;52.538;13.400;2022-10-16T03:26:34;15.20;99.90
2112;DHT22;1062;52.538;13.400;2022-10-16T03:29:00;15.20;99.90
2112;DHT22;1062;52.538;13.400;2022-10-16T03:31:27;15.10;99.90
2112;DHT22;1062;52.538;13.400;2022-10-16T03:33:53;15.10;99.90
2112;DHT22;1062;52.538;13.400;2022-10-16T03:36:18;15.10;99.90
2112;DHT22;1062;52.538;13.400;2022-10-16T03:38:44;15.00;99.90
2112;DHT22;1062;52.538;13.400;2022-10-16T03:41:09;15.00;99.90
2112;DHT22;1062;52.538;13.400;2022-10-16T03:43:35;15.00;99.90
2112;DHT22;1062;52.538;13.400;2022-10-16T03:46:01;14.90;99.90
2112;DHT22;1062;52.538;13.400;2022-10-16T03:48:26;14.90;99.90
2112;DHT22;1062;52.538;13.400;2022-10-16T03:50:52;14.90;99.90
2112;DHT22;1062;52.538;13.400;2022-10-16T03:53:17;14.90;99.90
2112;DHT22;1062;52.538;13.400;2022-10-16T03:55:44;14.90;99.90
2112;DHT22;1062;52.538;13.400;2022-10-16T03:58:10;14.90;99.90
2112;DHT22;1062;52.538;13.400;2022-10-16T04:00:36;14.80;99.90
2112;DHT22;1062;52.538;13.400;2022-10-16T04:03:04;14.80;99.90
2112;DHT22;1062;52.538;13.400;2022-10-16T04:05:30;14.80;99.90
2112;DHT22;1062;52.538;13.400;2022-10-16T04:07:55;14.80;99.90
2112;DHT22;1062;52.538;13.400;2022-10-16T04:10:21;14.80;99.90
2112;DHT22;1062;52.538;13.400;2022-10-16T04:12:46;14.80;99.90
2112;DHT22;1062;52.538;13.400;2022-10-16T04:15:12;14.80;99.90
2112;DHT22;1062;52.538;13.400;2022-10-16T04:17:37;14.80;99.90
2112;DHT22;1062;52.538;13.400;2022-10-16T04:20:03;14.80;99.90
2112;DHT22;1062;52.538;13.400;2022-10-16T04:22:29;14.80;99.90
2112;DHT22;1062;52.538;13.400;2022-10-16T04:24:54;14.80;99.90
2112;DHT22;1062;52.538;13.400;2022-10-16T04:27:20;14.80;99.90
2112;DHT22;1062;52.538;13.400;2022-10-16T04:29:45;14.80;99.90
2112;DHT22;1062;52.538;13.400;2022-10-16T04:32:11;14.80;99.90
2112;DHT22;1062;52.538;13.400;2022-10-16T04:34:36;14.80;99.90
2112;DHT22;1062;52.538;13.400;2022-10-16T04:37:04;14.80;99.90
2112;DHT22;1062;52.538;13.400;2022-10-16T04:39:29;14.70;99.90
2112;DHT22;1062;52.538;13.400;2022-10-16T04:41:55;14.70;99.90
2112;DHT22;1062;52.538;13.400;2022-10-16T04:44:20;14.70;99.90
2112;DHT22;1062;52.538;13.400;2022-10-16T04:46:46;14.70;99.90
2112;DHT22;1062;52.538;13.400;2022-10-16T04:49:11;14.70;99.90
2112;DHT22;1062;52.538;13.400;2022-10-16T04:51:37;14.70;99.90
2112;DHT22;1062;52.538;13.400;2022-10-16T04:54:03;14.70;99.90
2112;DHT22;1062;52.538;13.400;2022-10-16T04:56:28;14.60;99.90
2112;DHT22;1062;52.538;13.400;2022-10-16T04:58:54;14.60;99.90
2112;DHT22;1062;52.538;13.400;2022-10-16T05:01:19;14.60;99.90
2112;DHT22;1062;52.538;13.400;2022-10-16T05:03:45;14.60;99.90
2112;DHT22;1062;52.538;13.400;2022-10-16T05:06:11;14.60;99.90
2112;DHT22;1062;52.538;13.400;2022-10-16T05:08:36;14.60;99.90
2112;DHT22;1062;52.538;13.400;2022-10-16T05:11:02;14.50;99.90
2112;DHT22;1062;52.538;13.400;2022-10-16T05:13:27;14.50;99.90
2112;DHT22;1062;52.538;13.400;2022-10-16T05:15:53;14.50;99.90
2112;DHT22;1062;52.538;13.400;2022-10-16T05:18:18;14.50;99.90
2112;DHT22;1062;52.538;13.400;2022-10-16T05:20:44;14.50;99.90
2112;DHT22;1062;52.538;13.400;2022-10-16T05:23:10;14.50;99.90
2112;DHT22;1062;52.538;13.400;2022-10-16T05:25:36;14.50;99.90
2112;DHT22;1062;52.538;13.400;2022-10-16T05:28:02;14.60;99.90
2112;DHT22;1062;52.538;13.400;2022-10-16T05:30:27;14.60;99.90
2112;DHT22;1062;52.538;13.400;2022-10-16T05:32:53;14.60;99.90
2112;DHT22;1062;52.538;13.400;2022-10-16T05:35:19;14.60;99.90
2112;DHT22;1062;52.538;13.400;2022-10-16T05:37:45;14.60;99.90
2112;DHT22;1062;52.538;13.400;2022-10-16T05:40:11;14.60;99.90
2112;DHT22;1062;52.538;13.400;2022-10-16T05:42:38;14.60;99.90
2112;DHT22;1062;52.538;13.400;2022-10-16T05:45:05;14.70;99.90
2112;DHT22;1062;52.538;13.400;2022-10-16T05:47:31;14.70;99.90
2112;DHT22;1062;52.538;13.400;2022-10-16T05:49:57;14.70;99.90
2112;DHT22;1062;52.538;13.400;2022-10-16T05:52:22;14.80;99.90
2112;DHT22;1062;52.538;13.400;2022-10-16T05:54:48;14.80;99.90
2112;DHT22;1062;52.538;13.400;2022-10-16T05:57:14;14.80;99.90
2112;DHT22;1062;52.538;13.400;2022-10-16T05:59:39;14.80;99.90
2112;DHT22;1062;52.538;13.400;2022-10-16T06:02:05;14.80;99.90
2112;DHT22;1062;52.538;13.400;2022-10-16T06:04:30;14.80;99.90
2112;DHT22;1062;52.538;13.400;2022-10-16T06:06:58;14.80;99.90
2112;DHT22;1062;52.538;13.400;2022-10-16T06:09:25;14.80;99.90
2112;DHT22;1062;52.538;13.400;2022-10-16T06:11:51;14.80;99.90
2112;DHT22;1062;52.538;13.400;2022-10-16T06:14:25;14.80;99.90
2112;DHT22;1062;52.538;13.400;2022-10-16T06:16:51;14.80;99.90
2112;DHT22;1062;52.538;13.400;2022-10-16T06:19:16;14.90;99.90
2112;DHT22;1062;52.538;13.400;2022-10-16T06:21:42;14.90;99.90
2112;DHT22;1062;52.538;13.400;2022-10-16T06:24:09;14.80;99.90
2112;DHT22;1062;52.538;13.400;2022-10-16T06:26:34;14.90;99.90
2112;DHT22;1062;52.538;13.400;2022-10-16T06:29:00;14.90;99.90
2112;DHT22;1062;52.538;13.400;2022-10-16T06:31:27;15.00;99.90
2112;DHT22;1062;52.538;13.400;2022-10-16T06:33:56;15.00;99.90
2112;DHT22;1062;52.538;13.400;2022-10-16T06:36:22;15.00;99.90
2112;DHT22;1062;52.538;13.400;2022-10-16T06:38:48;15.10;99.90
2112;DHT22;1062;52.538;13.400;2022-10-16T06:41:16;15.10;99.90
2112;DHT22;1062;52.538;13.400;2022-10-16T06:43:42;15.20;99.90
2112;DHT22;1062;52.538;13.400;2022-10-16T06:46:11;15.10;99.90
2112;DHT22;1062;52.538;13.400;2022-10-16T06:48:38;15.20;99.90
2112;DHT22;1062;52.538;13.400;2022-10-16T06:51:10;15.20;99.90
2112;DHT22;1062;52.538;13.400;2022-10-16T06:53:38;15.20;99.90
2112;DHT22;1062;52.538;13.400;2022-10-16T06:58:40;15.20;99.90
2112;DHT22;1062;52.538;13.400;2022-10-16T07:01:07;15.30;99.90
2112;DHT22;1062;52.538;13.400;2022-10-16T07:03:32;15.30;99.90
2112;DHT22;1062;52.538;13.400;2022-10-16T07:06:05;15.40;99.90
2112;DHT22;1062;52.538;13.400;2022-10-16T07:08:32;15.50;99.90
2112;DHT22;1062;52.538;13.400;2022-10-16T07:11:06;15.60;99.90
2112;DHT22;1062;52.538;13.400;2022-10-16T07:13:40;15.70;99.90
2112;DHT22;1062;52.538;13.400;2022-10-16T07:16:08;15.80;99.90
2112;DHT22;1062;52.538;13.400;2022-10-16T07:18:34;15.90;99.90
2112;DHT22;1062;52.538;13.400;2022-10-16T07:21:20;16.00;99.90
2112;DHT22;1062;52.538;13.400;2022-10-16T07:23:51;16.10;99.90
2112;DHT22;1062;52.538;13.400;2022-10-16T07:26:17;16.20;99.90
2112;DHT22;1062;52.538;13.400;2022-10-16T07:28:43;16.10;99.90
2112;DHT22;1062;52.538;13.400;2022-10-16T07:31:11;16.20;99.90
2112;DHT22;1062;52.538;13.400;2022-10-16T07:33:38;16.30;99.90
2112;DHT22;1062;52.538;13.400;2022-10-16T07:36:05;16.40;99.90
2112;DHT22;1062;52.538;13.400;2022-10-16T07:38:31;16.40;99.90
2112;DHT22;1062;52.538;13.400;2022-10-16T07:40:58;16.40;99.90
2112;DHT22;1062;52.538;13.400;2022-10-16T07:43:24;16.40;99.90
2112;DHT22;1062;52.538;13.400;2022-10-16T07:45:51;16.60;99.90
2112;DHT22;1062;52.538;13.400;2022-10-16T07:48:17;16.70;99.90
2112;DHT22;1062;52.538;13.400;2022-10-16T07:50:44;16.70;99.90
2112;DHT22;1062;52.538;13.400;2022-10-16T07:53:10;16.80;99.90
2112;DHT22;1062;52.538;13.400;2022-10-16T07:55:37;16.70;99.90
2112;DHT22;1062;52.538;13.400;2022-10-16T07:58:03;16.70;99.90
2112;DHT22;1062;52.538;13.400;2022-10-16T08:00:28;16.80;99.90
2112;DHT22;1062;52.538;13.400;2022-10-16T08:02:54;16.80;99.90
2112;DHT22;1062;52.538;13.400;2022-10-16T08:05:19;16.60;99.90
2112;DHT22;1062;52.538;13.400;2022-10-16T08:07:49;16.70;99.90
2112;DHT22;1062;52.538;13.400;2022-10-16T08:10:17;16.80;99.90
2112;DHT22;1062;52.538;13.400;2022-10-16T08:12:43;16.90;99.90
2112;DHT22;1062;52.538;13.400;2022-10-16T08:15:09;16.90;99.90
2112;DHT22;1062;52.538;13.400;2022-10-16T08:17:34;17.00;99.90
2112;DHT22;1062;52.538;13.400;2022-10-16T08:20:00;17.00;99.90
2112;DHT22;1062;52.538;13.400;2022-10-16T08:22:25;17.00;99.90
2112;DHT22;1062;52.538;13.400;2022-10-16T08:24:51;17.10;99.90
2112;DHT22;1062;52.538;13.400;2022-10-16T08:27:16;17.00;99.90
2112;DHT22;1062;52.538;13.400;2022-10-16T08:29:42;17.10;99.90
2112;DHT22;1062;52.538;13.400;2022-10-16T08:32:07;17.10;99.90
2112;DHT22;1062;52.538;13.400;2022-10-16T08:34:33;17.20;99.90
2112;DHT22;1062;52.538;13.400;2022-10-16T08:36:59;17.10;99.90
2112;DHT22;1062;52.538;13.400;2022-10-16T08:39:24;17.10;99.90
2112;DHT22;1062;52.538;13.400;2022-10-16T08:42:21;17.20;99.90
2112;DHT22;1062;52.538;13.400;2022-10-16T08:45:11;17.30;99.90
2112;DHT22;1062;52.538;13.400;2022-10-16T08:48:00;17.40;99.90
2112;DHT22;1062;52.538;13.400;2022-10-16T08:50:32;17.40;99.90
2112;DHT22;1062;52.538;13.400;2022-10-16T08:52:59;17.50;99.90
2112;DHT22;1062;52.538;13.400;2022-10-16T08:55:28;17.60;99.90
2112;DHT22;1062;52.538;13.400;2022-10-16T08:57:54;17.50;99.90
2112;DHT22;1062;52.538;13.400;2022-10-16T09:00:20;17.60;99.90
2112;DHT22;1062;52.538;13.400;2022-10-16T09:05:44;17.70;99.90
2112;DHT22;1062;52.538;13.400;2022-10-16T09:10:57;17.70;99.90
2112;DHT22;1062;52.538;13.400;2022-10-16T09:13:32;17.90;99.90
2112;DHT22;1062;52.538;13.400;2022-10-16T09:16:15;18.10;99.90
2112;DHT22;1062;52.538;13.400;2022-10-16T09:21:31;18.70;99.90
2112;DHT22;1062;52.538;13.400;2022-10-16T09:24:07;18.50;99.90
2112;DHT22;1062;52.538;13.400;2022-10-16T09:26:34;18.20;99.90
2112;DHT22;1062;52.538;13.400;2022-10-16T09:29:00;18.30;99.90
2112;DHT22;1062;52.538;13.400;2022-10-16T09:31:25;18.30;99.90
2112;DHT22;1062;52.538;13.400;2022-10-16T09:34:00;18.50;99.90
2112;DHT22;1062;52.538;13.400;2022-10-16T09:36:28;18.70;99.90
2112;DHT22;1062;52.538;13.400;2022-10-16T09:39:05;18.80;99.90
2112;DHT22;1062;52.538;13.400;2022-10-16T09:41:34;18.80;99.90
2112;DHT22;1062;52.538;13.400;2022-10-16T09:44:02;18.90;99.90
2112;DHT22;1062;52.538;13.400;2022-10-16T09:46:35;18.90;99.90
2112;DHT22;1062;52.538;13.400;2022-10-16T09:49:22;19.00;99.90
2112;DHT22;1062;52.538;13.400;2022-10-16T09:51:49;18.90;99.90
2112;DHT22;1062;52.538;13.400;2022-10-16T09:56:41;19.00;99.90
2112;DHT22;1062;52.538;13.400;2022-10-16T09:59:13;18.80;99.90
2112;DHT22;1062;52.538;13.400;2022-10-16T10:01:41;18.90;99.90
2112;DHT22;1062;52.538;13.400;2022-10-16T10:04:08;18.90;99.90
2112;DHT22;1062;52.538;13.400;2022-10-16T10:06:36;19.10;99.90
2112;DHT22;1062;52.538;13.400;2022-10-16T10:11:53;19.30;99.90
2112;DHT22;1062;52.538;13.400;2022-10-16T10:14:40;19.40;99.90
2112;DHT22;1062;52.538;13.400;2022-10-16T10:17:19;19.40;99.90
2112;DHT22;1062;52.538;13.400;2022-10-16T10:20:14;19.20;99.90
2112;DHT22;1062;52.538;13.400;2022-10-16T10:22:45;19.20;99.90
2112;DHT22;1062;52.538;13.400;2022-10-16T10:38:50;19.10;99.90
2112;DHT22;1062;52.538;13.400;2022-10-16T10:46:42;19.00;99.90
2112;DHT22;1062;52.538;13.400;2022-10-16T11:05:48;19.90;99.90
2112;DHT22;1062;52.538;13.400;2022-10-16T11:08:20;19.90;99.90
2112;DHT22;1062;52.538;13.400;2022-10-16T11:11:02;20.00;99.90
2112;DHT22;1062;52.538;13.400;2022-10-16T11:16:01;20.20;99.90
2112;DHT22;1062;52.538;13.400;2022-10-16T11:18:42;20.20;99.90
2112;DHT22;1062;52.538;13.400;2022-10-16T11:21:13;20.10;99.90
2112;DHT22;1062;52.538;13.400;2022-10-16T11:23:51;20.00;99.90
2112;DHT22;1062;52.538;13.400;2022-10-16T11:26:23;19.80;99.90
2112;DHT22;1062;52.538;13.400;2022-10-16T11:28:53;20.00;99.90
2112;DHT22;1062;52.538;13.400;2022-10-16T11:31:43;20.50;99.90
2112;DHT22;1062;52.538;13.400;2022-10-16T11:34:34;20.30;99.90
2112;DHT22;1062;52.538;13.400;2022-10-16T11:37:16;20.10;99.90
2112;DHT22;1062;52.538;13.400;2022-10-16T11:39:43;20.00;99.90
2112;DHT22;1062;52.538;13.400;2022-10-16T11:42:34;20.00;99.90
2112;DHT22;1062;52.538;13.400;2022-10-16T11:47:50;19.70;99.90
2112;DHT22;1062;52.538;13.400;2022-10-16T11:50:30;19.80;99.90
2112;DHT22;1062;52.538;13.400;2022-10-16T11:55:39;19.80;99.90
2112;DHT22;1062;52.538;13.400;2022-10-16T12:00:46;19.80;99.90
2112;DHT22;1062;52.538;13.400;2022-10-16T12:06:30;19.60;99.90
2112;DHT22;1062;52.538;13.400;2022-10-16T12:08:59;19.60;99.90
2112;DHT22;1062;52.538;13.400;2022-10-16T12:16:53;19.60;99.90
2112;DHT22;1062;52.538;13.400;2022-10-16T12:19:21;19.60;99.90
2112;DHT22;1062;52.538;13.400;2022-10-16T12:21:46;19.70;99.90
2112;DHT22;1062;52.538;13.400;2022-10-16T12:24:33;19.80;99.90
2112;DHT22;1062;52.538;13.400;2022-10-16T12:27:00;19.70;99.90
2112;DHT22;1062;52.538;13.400;2022-10-16T12:29:41;19.80;99.90
2112;DHT22;1062;52.538;13.400;2022-10-16T12:32:29;19.90;99.90
2112;DHT22;1062;52.538;13.400;2022-10-16T12:34:57;19.90;99.90
2112;DHT22;1062;52.538;13.400;2022-10-16T12:37:35;20.10;99.90
2112;DHT22;1062;52.538;13.400;2022-10-16T12:40:23;20.10;99.90
2112;DHT22;1062;52.538;13.400;2022-10-16T12:42:49;20.10;99.90
2112;DHT22;1062;52.538;13.400;2022-10-16T12:45:28;20.00;99.90
2112;DHT22;1062;52.538;13.400;2022-10-16T12:47:55;19.90;99.90
2112;DHT22;1062;52.538;13.400;2022-10-16T12:50:36;20.00;99.90
2112;DHT22;1062;52.538;13.400;2022-10-16T12:53:04;20.10;99.90
2112;DHT22;1062;52.538;13.400;2022-10-16T12:58:56;20.10;99.90
2112;DHT22;1062;52.538;13.400;2022-10-16T13:04:27;20.10;99.90
2112;DHT22;1062;52.538;13.400;2022-10-16T13:12:45;20.30;99.90
2112;DHT22;1062;52.538;13.400;2022-10-16T13:16:01;20.40;99.90
2112;DHT22;1062;52.538;13.400;2022-10-16T13:18:26;20.40;99.90
2112;DHT22;1062;52.538;13.400;2022-10-16T13:21:05;20.40;99.90
2112;DHT22;1062;52.538;13.400;2022-10-16T13:23:43;20.50;99.90
2112;DHT22;1062;52.538;13.400;2022-10-16T13:26:28;20.60;99.90
2112;DHT22;1062;52.538;13.400;2022-10-16T13:29:00;20.40;99.90
2112;DHT22;1062;52.538;13.400;2022-10-16T13:31:27;20.40;99.90
2112;DHT22;1062;52.538;13.400;2022-10-16T13:33:55;20.50;99.90
2112;DHT22;1062;52.538;13.400;2022-10-16T13:36:35;20.50;99.90
2112;DHT22;1062;52.538;13.400;2022-10-16T13:39:21;20.70;99.90
2112;DHT22;1062;52.538;13.400;2022-10-16T13:44:24;20.50;99.90
2112;DHT22;1062;52.538;13.400;2022-10-16T13:47:13;20.50;99.90
2112;DHT22;1062;52.538;13.400;2022-10-16T13:49:40;20.60;99.90
2112;DHT22;1062;52.538;13.400;2022-10-16T13:52:05;20.60;99.90
2112;DHT22;1062;52.538;13.400;2022-10-16T13:54:31;20.70;99.90
2112;DHT22;1062;52.538;13.400;2022-10-16T13:57:04;20.80;99.90
2112;DHT22;1062;52.538;13.400;2022-10-16T13:59:34;20.70;99.90
2112;DHT22;1062;52.538;13.400;2022-10-16T14:02:08;20.50;99.90
2112;DHT22;1062;52.538;13.400;2022-10-16T14:04:40;20.40;99.90
2112;DHT22;1062;52.538;13.400;2022-10-16T14:07:13;20.40;99.90
2112;DHT22;1062;52.538;13.400;2022-10-16T14:09:40;20.30;99.90
2112;DHT22;1062;52.538;13.400;2022-10-16T14:12:10;20.30;99.90
2112;DHT22;1062;52.538;13.400;2022-10-16T14:14:48;20.20;99.90
2112;DHT22;1062;52.538;13.400;2022-10-16T14:17:24;20.10;99.90
2112;DHT22;1062;52.538;13.400;2022-10-16T14:19:54;20.10;99.90
2112;DHT22;1062;52.538;13.400;2022-10-16T14:24:49;20.20;99.90
2112;DHT22;1062;52.538;13.400;2022-10-16T14:27:36;20.20;99.90
2112;DHT22;1062;52.538;13.400;2022-10-16T14:30:11;20.10;99.90
2112;DHT22;1062;52.538;13.400;2022-10-16T14:32:40;19.90;99.90
2112;DHT22;1062;52.538;13.400;2022-10-16T14:35:23;19.90;99.90
2112;DHT22;1062;52.538;13.400;2022-10-16T14:37:54;19.90;99.90
2112;DHT22;1062;52.538;13.400;2022-10-16T14:40:22;19.90;99.90
2112;DHT22;1062;52.538;13.400;2022-10-16T14:42:49;19.90;99.90
2112;DHT22;1062;52.538;13.400;2022-10-16T14:45:19;19.90;99.90
2112;DHT22;1062;52.538;13.400;2022-10-16T14:47:50;19.80;99.90
2112;DHT22;1062;52.538;13.400;2022-10-16T14:50:16;19.80;99.90
2112;DHT22;1062;52.538;13.400;2022-10-16T14:52:41;19.70;99.90
2112;DHT22;1062;52.538;13.400;2022-10-16T14:55:09;19.70;99.90
2112;DHT22;1062;52.538;13.400;2022-10-16T14:57:37;19.60;99.90
2112;DHT22;1062;52.538;13.400;2022-10-16T15:00:08;19.60;99.90
2112;DHT22;1062;52.538;13.400;2022-10-16T15:02:35;19.60;99.90
2112;DHT22;1062;52.538;13.400;2022-10-16T15:05:23;19.60;99.90
2112;DHT22;1062;52.538;13.400;2022-10-16T15:07:50;19.50;99.90
2112;DHT22;1062;52.538;13.400;2022-10-16T15:10:17;19.40;99.90
2112;DHT22;1062;52.538;13.400;2022-10-16T15:12:43;19.40;99.90
2112;DHT22;1062;52.538;13.400;2022-10-16T15:15:36;19.40;99.90
2112;DHT22;1062;52.538;13.400;2022-10-16T15:18:02;19.40;99.90
2112;DHT22;1062;52.538;13.400;2022-10-16T15:20:34;19.40;99.90
2112;DHT22;1062;52.538;13.400;2022-10-16T15:23:06;19.30;99.90
2112;DHT22;1062;52.538;13.400;2022-10-16T15:25:44;19.20;99.90
2112;DHT22;1062;52.538;13.400;2022-10-16T15:28:11;19.10;99.90
2112;DHT22;1062;52.538;13.400;2022-10-16T15:30:38;19.00;99.90
2112;DHT22;1062;52.538;13.400;2022-10-16T15:33:04;18.90;99.90
2112;DHT22;1062;52.538;13.400;2022-10-16T15:35:30;18.80;99.90
2112;DHT22;1062;52.538;13.400;2022-10-16T15:37:57;18.70;99.90
2112;DHT22;1062;52.538;13.400;2022-10-16T15:40:23;18.70;99.90
2112;DHT22;1062;52.538;13.400;2022-10-16T15:42:49;18.60;99.90
2112;DHT22;1062;52.538;13.400;2022-10-16T15:45:15;18.50;99.90
2112;DHT22;1062;52.538;13.400;2022-10-16T15:47:41;18.50;99.90
2112;DHT22;1062;52.538;13.400;2022-10-16T15:50:09;18.50;99.90
2112;DHT22;1062;52.538;13.400;2022-10-16T15:52:36;18.40;99.90
2112;DHT22;1062;52.538;13.400;2022-10-16T15:55:02;18.30;99.90
2112;DHT22;1062;52.538;13.400;2022-10-16T15:57:28;18.20;99.90
2112;DHT22;1062;52.538;13.400;2022-10-16T15:59:54;18.10;99.90
2112;DHT22;1062;52.538;13.400;2022-10-16T16:02:20;18.10;99.90
2112;DHT22;1062;52.538;13.400;2022-10-16T16:04:45;18.00;99.90
2112;DHT22;1062;52.538;13.400;2022-10-16T16:07:11;17.90;99.90
2112;DHT22;1062;52.538;13.400;2022-10-16T16:09:36;17.80;99.90
2112;DHT22;1062;52.538;13.400;2022-10-16T16:12:02;17.70;99.90
2112;DHT22;1062;52.538;13.400;2022-10-16T16:14:28;17.60;99.90
2112;DHT22;1062;52.538;13.400;2022-10-16T16:16:54;17.50;99.90
2112;DHT22;1062;52.538;13.400;2022-10-16T16:19:20;17.40;99.90
2112;DHT22;1062;52.538;13.400;2022-10-16T16:21:50;17.40;99.90
2112;DHT22;1062;52.538;13.400;2022-10-16T16:24:15;17.30;99.90
2112;DHT22;1062;52.538;13.400;2022-10-16T16:26:41;17.20;99.90
2112;DHT22;1062;52.538;13.400;2022-10-16T16:29:11;17.10;99.90
2112;DHT22;1062;52.538;13.400;2022-10-16T16:31:39;17.00;99.90
2112;DHT22;1062;52.538;13.400;2022-10-16T16:34:04;17.00;99.90
2112;DHT22;1062;52.538;13.400;2022-10-16T16:36:30;16.90;99.90
2112;DHT22;1062;52.538;13.400;2022-10-16T16:38:56;16.90;99.90
2112;DHT22;1062;52.538;13.400;2022-10-16T16:41:26;16.80;99.90
2112;DHT22;1062;52.538;13.400;2022-10-16T16:43:52;16.70;99.90
2112;DHT22;1062;52.538;13.400;2022-10-16T16:46:19;16.60;99.90
2112;DHT22;1062;52.538;13.400;2022-10-16T16:48:45;16.60;99.90
2112;DHT22;1062;52.538;13.400;2022-10-16T16:51:14;16.50;99.90
2112;DHT22;1062;52.538;13.400;2022-10-16T16:53:47;16.50;99.90
2112;DHT22;1062;52.538;13.400;2022-10-16T16:56:13;16.40;99.90
2112;DHT22;1062;52.538;13.400;2022-10-16T16:58:39;16.40;99.90
2112;DHT22;1062;52.538;13.400;2022-10-16T17:01:05;16.30;99.90
2112;DHT22;1062;52.538;13.400;2022-10-16T17:03:33;16.20;99.90
2112;DHT22;1062;52.538;13.400;2022-10-16T17:06:06;16.20;99.90
2112;DHT22;1062;52.538;13.400;2022-10-16T17:08:33;16.10;99.90
2112;DHT22;1062;52.538;13.400;2022-10-16T17:10:58;16.00;99.90
2112;DHT22;1062;52.538;13.400;2022-10-16T17:13:25;16.00;99.90
2112;DHT22;1062;52.538;13.400;2022-10-16T17:15:51;15.90;99.90
2112;DHT22;1062;52.538;13.400;2022-10-16T17:18:18;15.90;99.90
2112;DHT22;1062;52.538;13.400;2022-10-16T17:20:43;15.80;99.90
2112;DHT22;1062;52.538;13.400;2022-10-16T17:23:09;15.80;99.90
2112;DHT22;1062;52.538;13.400;2022-10-16T17:25:37;15.70;99.90
2112;DHT22;1062;52.538;13.400;2022-10-16T17:28:03;15.70;99.90
2112;DHT22;1062;52.538;13.400;2022-10-16T17:30:28;15.70;99.90
2112;DHT22;1062;52.538;13.400;2022-10-16T17:32:54;15.70;99.90
2112;DHT22;1062;52.538;13.400;2022-10-16T17:35:19;15.60;99.90
2112;DHT22;1062;52.538;13.400;2022-10-16T17:37:45;15.60;99.90
2112;DHT22;1062;52.538;13.400;2022-10-16T17:40:11;15.50;99.90
2112;DHT22;1062;52.538;13.400;2022-10-16T17:42:36;15.40;99.90
2112;DHT22;1062;52.538;13.400;2022-10-16T17:45:02;15.40;99.90
2112;DHT22;1062;52.538;13.400;2022-10-16T17:47:28;15.30;99.90